sensor_id;sensor_type;location;lat;lon;timestamp;pressure;altitude;pressure_sealevel;temperature;humidity
37170;BME280;23062;13.952;100.608;2022-09-09T00:08:02;752.80;;;-142.63;94.98
37170;BME280;23062;13.952;100.608;2022-09-09T00:13:15;752.80;;;-142.63;94.87
37170;BME280;23062;13.952;100.608;2022-09-09T00:18:14;752.83;;;-142.63;95.42
37170;BME280;23062;13.952;100.608;2022-09-09T00:23:05;752.70;;;-142.63;94.69
37170;BME280;23062;13.952;100.608;2022-09-09T00:27:55;752.79;;;-142.63;95.09
37170;BME280;23062;13.952;100.608;2022-09-09T00:32:45;752.87;;;-142.63;95.32
37170;BME280;23062;13.952;100.608;2022-09-09T00:37:35;752.87;;;-142.63;96.46
37170;BME280;23062;13.952;100.608;2022-09-09T00:42:42;752.84;;;-142.63;94.96
37170;BME280;23062;13.952;100.608;2022-09-09T00:57:56;752.75;;;-142.63;93.30
37170;BME280;23062;13.952;100.608;2022-09-09T01:08:09;752.70;;;-142.63;92.05
37170;BME280;23062;13.952;100.608;2022-09-09T01:12:58;752.74;;;-142.63;91.20
37170;BME280;23062;13.952;100.608;2022-09-09T01:18:00;752.73;;;-142.63;90.34
37170;BME280;23062;13.952;100.608;2022-09-09T01:28:00;752.77;;;-142.63;89.03
37170;BME280;23062;13.952;100.608;2022-09-09T01:32:55;752.76;;;-142.63;88.46
37170;BME280;23062;13.952;100.608;2022-09-09T01:37:47;752.83;;;-142.63;88.42
37170;BME280;23062;13.952;100.608;2022-09-09T01:42:36;752.87;;;-142.63;87.79
37170;BME280;23062;13.952;100.608;2022-09-09T01:47:26;752.91;;;-142.63;87.77
37170;BME280;23062;13.952;100.608;2022-09-09T01:52:15;753.20;;;-142.63;89.51
37170;BME280;23062;13.952;100.608;2022-09-09T02:02:32;753.25;;;-142.63;89.61
37170;BME280;23062;13.952;100.608;2022-09-09T02:12:24;753.28;;;-142.63;89.23
37170;BME280;23062;13.952;100.608;2022-09-09T02:17:17;753.25;;;-142.63;88.18
37170;BME280;23062;13.952;100.608;2022-09-09T02:22:06;753.24;;;-142.63;87.55
37170;BME280;23062;13.952;100.608;2022-09-09T02:26:57;753.18;;;-142.63;87.07
37170;BME280;23062;13.952;100.608;2022-09-09T02:31:49;753.22;;;-142.63;86.16
37170;BME280;23062;13.952;100.608;2022-09-09T02:36:40;753.15;;;-142.63;85.54
37170;BME280;23062;13.952;100.608;2022-09-09T02:41:33;753.14;;;-142.63;85.79
37170;BME280;23062;13.952;100.608;2022-09-09T02:51:50;752.91;;;-142.63;83.01
37170;BME280;23062;13.952;100.608;2022-09-09T02:56:38;752.92;;;-142.63;80.46
37170;BME280;23062;13.952;100.608;2022-09-09T03:01:27;752.89;;;-142.63;79.37
37170;BME280;23062;13.952;100.608;2022-09-09T03:06:16;752.90;;;-142.63;79.52
37170;BME280;23062;13.952;100.608;2022-09-09T03:11:05;752.94;;;-142.63;78.24
37170;BME280;23062;13.952;100.608;2022-09-09T03:15:55;752.84;;;-142.63;77.93
37170;BME280;23062;13.952;100.608;2022-09-09T03:20:45;752.81;;;-142.63;77.98
37170;BME280;23062;13.952;100.608;2022-09-09T03:25:36;752.80;;;-142.63;77.73
37170;BME280;23062;13.952;100.608;2022-09-09T03:30:27;752.82;;;-142.63;77.53
37170;BME280;23062;13.952;100.608;2022-09-09T03:35:17;752.79;;;-142.63;77.85
37170;BME280;23062;13.952;100.608;2022-09-09T03:40:07;752.90;;;-142.63;77.99
37170;BME280;23062;13.952;100.608;2022-09-09T03:44:58;752.93;;;-142.63;78.50
37170;BME280;23062;13.952;100.608;2022-09-09T03:49:49;752.88;;;-142.63;78.58
37170;BME280;23062;13.952;100.608;2022-09-09T03:54:40;752.86;;;-142.63;78.54
37170;BME280;23062;13.952;100.608;2022-09-09T03:59:30;752.90;;;-142.63;78.14
37170;BME280;23062;13.952;100.608;2022-09-09T04:04:19;752.87;;;-142.63;77.57
37170;BME280;23062;13.952;100.608;2022-09-09T04:09:09;752.81;;;-142.63;77.63
37170;BME280;23062;13.952;100.608;2022-09-09T04:13:58;752.75;;;-142.63;77.24
37170;BME280;23062;13.952;100.608;2022-09-09T04:18:47;752.58;;;-142.63;77.92
37170;BME280;23062;13.952;100.608;2022-09-09T04:23:37;752.50;;;-142.63;78.75
37170;BME280;23062;13.952;100.608;2022-09-09T04:28:28;752.40;;;-142.63;78.54
37170;BME280;23062;13.952;100.608;2022-09-09T04:33:18;752.26;;;-142.63;77.47
37170;BME280;23062;13.952;100.608;2022-09-09T04:38:08;752.06;;;-142.63;76.33
37170;BME280;23062;13.952;100.608;2022-09-09T04:43:03;752.01;;;-142.63;75.89
37170;BME280;23062;13.952;100.608;2022-09-09T04:47:53;751.91;;;-142.63;75.28
37170;BME280;23062;13.952;100.608;2022-09-09T04:52:42;751.80;;;-142.63;75.10
37170;BME280;23062;13.952;100.608;2022-09-09T04:57:31;751.71;;;-142.63;74.81
37170;BME280;23062;13.952;100.608;2022-09-09T05:02:20;751.59;;;-142.63;74.26
37170;BME280;23062;13.952;100.608;2022-09-09T05:07:10;751.40;;;-142.63;75.44
37170;BME280;23062;13.952;100.608;2022-09-09T05:11:59;751.40;;;-142.63;75.84
37170;BME280;23062;13.952;100.608;2022-09-09T05:16:48;751.18;;;-142.63;74.84
37170;BME280;23062;13.952;100.608;2022-09-09T05:21:38;751.09;;;-142.63;73.99
37170;BME280;23062;13.952;100.608;2022-09-09T05:26:27;751.13;;;-142.63;73.17
37170;BME280;23062;13.952;100.608;2022-09-09T05:31:18;751.00;;;-142.63;72.77
37170;BME280;23062;13.952;100.608;2022-09-09T05:36:12;750.87;;;-142.63;71.67
37170;BME280;23062;13.952;100.608;2022-09-09T05:41:01;750.79;;;-142.63;72.09
37170;BME280;23062;13.952;100.608;2022-09-09T05:46:05;750.70;;;-142.63;73.66
37170;BME280;23062;13.952;100.608;2022-09-09T05:50:58;750.56;;;-142.63;72.35
37170;BME280;23062;13.952;100.608;2022-09-09T05:55:47;750.44;;;-142.63;71.87
37170;BME280;23062;13.952;100.608;2022-09-09T06:00:37;750.34;;;-142.63;71.79
37170;BME280;23062;13.952;100.608;2022-09-09T06:05:28;750.31;;;-142.63;71.41
37170;BME280;23062;13.952;100.608;2022-09-09T06:10:17;750.22;;;-142.63;71.22
37170;BME280;23062;13.952;100.608;2022-09-09T06:15:07;750.10;;;-142.63;71.49
37170;BME280;23062;13.952;100.608;2022-09-09T06:19:56;749.91;;;-142.63;70.30
37170;BME280;23062;13.952;100.608;2022-09-09T06:24:45;749.85;;;-142.63;70.19
37170;BME280;23062;13.952;100.608;2022-09-09T06:29:36;749.84;;;-142.63;70.64
37170;BME280;23062;13.952;100.608;2022-09-09T06:34:26;749.66;;;-142.63;69.30
37170;BME280;23062;13.952;100.608;2022-09-09T06:39:16;749.52;;;-142.63;69.67
37170;BME280;23062;13.952;100.608;2022-09-09T06:44:05;749.38;;;-142.63;68.48
37170;BME280;23062;13.952;100.608;2022-09-09T06:48:55;749.29;;;-142.63;67.63
37170;BME280;23062;13.952;100.608;2022-09-09T06:53:47;749.28;;;-142.63;68.09
37170;BME280;23062;13.952;100.608;2022-09-09T06:58:39;749.26;;;-142.63;68.09
37170;BME280;23062;13.952;100.608;2022-09-09T07:03:30;749.18;;;-142.63;68.53
37170;BME280;23062;13.952;100.608;2022-09-09T07:08:19;749.08;;;-142.63;69.04
37170;BME280;23062;13.952;100.608;2022-09-09T07:13:09;749.00;;;-142.63;67.93
37170;BME280;23062;13.952;100.608;2022-09-09T07:18:00;748.90;;;-142.63;68.04
37170;BME280;23062;13.952;100.608;2022-09-09T07:22:50;748.70;;;-142.63;67.83
37170;BME280;23062;13.952;100.608;2022-09-09T07:27:40;748.70;;;-142.63;68.00
37170;BME280;23062;13.952;100.608;2022-09-09T07:32:29;748.63;;;-142.63;67.43
37170;BME280;23062;13.952;100.608;2022-09-09T07:37:19;748.46;;;-142.63;66.77
37170;BME280;23062;13.952;100.608;2022-09-09T07:42:08;748.40;;;-142.63;66.13
37170;BME280;23062;13.952;100.608;2022-09-09T07:46:59;748.34;;;-142.63;66.36
37170;BME280;23062;13.952;100.608;2022-09-09T07:51:49;748.23;;;-142.63;66.07
37170;BME280;23062;13.952;100.608;2022-09-09T07:56:39;748.24;;;-142.63;66.06
37170;BME280;23062;13.952;100.608;2022-09-09T08:01:32;748.17;;;-142.63;65.03
37170;BME280;23062;13.952;100.608;2022-09-09T08:06:22;748.17;;;-142.63;64.28
37170;BME280;23062;13.952;100.608;2022-09-09T08:11:14;748.08;;;-142.63;62.70
37170;BME280;23062;13.952;100.608;2022-09-09T08:16:07;748.17;;;-142.63;63.29
37170;BME280;23062;13.952;100.608;2022-09-09T08:20:57;748.18;;;-142.63;63.48
37170;BME280;23062;13.952;100.608;2022-09-09T08:25:49;748.13;;;-142.63;63.39
37170;BME280;23062;13.952;100.608;2022-09-09T08:30:40;748.06;;;-142.63;63.45
37170;BME280;23062;13.952;100.608;2022-09-09T08:35:29;748.00;;;-142.63;62.76
37170;BME280;23062;13.952;100.608;2022-09-09T08:40:26;747.97;;;-142.63;62.85
37170;BME280;23062;13.952;100.608;2022-09-09T08:50:28;747.85;;;-142.63;62.70
37170;BME280;23062;13.952;100.608;2022-09-09T08:55:24;747.89;;;-142.63;63.07
37170;BME280;23062;13.952;100.608;2022-09-09T09:00:16;747.68;;;-142.63;62.89
37170;BME280;23062;13.952;100.608;2022-09-09T09:05:12;747.71;;;-142.63;63.16
37170;BME280;23062;13.952;100.608;2022-09-09T09:14:57;747.62;;;-142.63;63.86
37170;BME280;23062;13.952;100.608;2022-09-09T09:19:48;747.61;;;-142.63;63.97
37170;BME280;23062;13.952;100.608;2022-09-09T09:24:53;747.55;;;-142.63;64.49
37170;BME280;23062;13.952;100.608;2022-09-09T09:29:43;747.45;;;-142.63;64.07
37170;BME280;23062;13.952;100.608;2022-09-09T09:34:33;747.34;;;-142.63;63.80
37170;BME280;23062;13.952;100.608;2022-09-09T09:39:27;747.36;;;-142.63;64.28
37170;BME280;23062;13.952;100.608;2022-09-09T09:44:31;747.33;;;-142.63;64.26
37170;BME280;23062;13.952;100.608;2022-09-09T09:49:21;747.30;;;-142.63;64.32
37170;BME280;23062;13.952;100.608;2022-09-09T09:54:28;747.32;;;-142.63;64.58
37170;BME280;23062;13.952;100.608;2022-09-09T10:04:22;747.11;;;-142.63;63.74
37170;BME280;23062;13.952;100.608;2022-09-09T10:09:30;747.05;;;-142.63;63.62
37170;BME280;23062;13.952;100.608;2022-09-09T10:14:37;747.11;;;-142.63;63.43
37170;BME280;23062;13.952;100.608;2022-09-09T10:19:34;747.20;;;-142.63;63.42
37170;BME280;23062;13.952;100.608;2022-09-09T10:40:26;747.45;;;-142.63;64.84
37170;BME280;23062;13.952;100.608;2022-09-09T10:45:26;747.55;;;-142.63;65.61
37170;BME280;23062;13.952;100.608;2022-09-09T10:55:13;747.69;;;-142.63;66.23
37170;BME280;23062;13.952;100.608;2022-09-09T11:00:05;747.77;;;-142.63;66.67
37170;BME280;23062;13.952;100.608;2022-09-09T11:05:08;747.82;;;-142.63;66.95
37170;BME280;23062;13.952;100.608;2022-09-09T11:09:59;747.82;;;-142.63;67.33
37170;BME280;23062;13.952;100.608;2022-09-09T11:15:13;747.96;;;-142.63;67.67
37170;BME280;23062;13.952;100.608;2022-09-09T11:19:55;748.00;;;-142.63;68.16
37170;BME280;23062;13.952;100.608;2022-09-09T11:24:50;748.05;;;-142.63;68.66
37170;BME280;23062;13.952;100.608;2022-09-09T11:45:26;748.33;;;-142.63;70.23
37170;BME280;23062;13.952;100.608;2022-09-09T11:55:30;748.43;;;-142.63;70.88
37170;BME280;23062;13.952;100.608;2022-09-09T12:00:39;748.57;;;-142.63;71.27
37170;BME280;23062;13.952;100.608;2022-09-09T12:05:42;748.61;;;-142.63;71.69
37170;BME280;23062;13.952;100.608;2022-09-09T12:10:37;748.62;;;-142.63;71.82
37170;BME280;23062;13.952;100.608;2022-09-09T12:15:27;748.68;;;-142.63;71.93
37170;BME280;23062;13.952;100.608;2022-09-09T12:20:31;748.79;;;-142.63;72.22
37170;BME280;23062;13.952;100.608;2022-09-09T12:25:37;748.84;;;-142.63;72.57
37170;BME280;23062;13.952;100.608;2022-09-09T12:30:27;748.94;;;-142.63;73.08
37170;BME280;23062;13.952;100.608;2022-09-09T12:35:26;749.00;;;-142.63;73.38
37170;BME280;23062;13.952;100.608;2022-09-09T12:40:22;749.05;;;-142.63;73.51
37170;BME280;23062;13.952;100.608;2022-09-09T12:45:20;749.13;;;-142.63;73.66
37170;BME280;23062;13.952;100.608;2022-09-09T12:50:26;749.20;;;-142.63;73.74
37170;BME280;23062;13.952;100.608;2022-09-09T12:55:24;749.27;;;-142.63;74.01
37170;BME280;23062;13.952;100.608;2022-09-09T13:00:21;749.31;;;-142.63;74.05
37170;BME280;23062;13.952;100.608;2022-09-09T13:05:18;749.35;;;-142.63;73.89
37170;BME280;23062;13.952;100.608;2022-09-09T13:10:13;749.46;;;-142.63;73.50
37170;BME280;23062;13.952;100.608;2022-09-09T13:15:02;749.54;;;-142.63;73.29
37170;BME280;23062;13.952;100.608;2022-09-09T13:19:53;749.56;;;-142.63;73.33
37170;BME280;23062;13.952;100.608;2022-09-09T13:24:43;749.60;;;-142.63;73.60
37170;BME280;23062;13.952;100.608;2022-09-09T13:29:33;749.66;;;-142.63;73.87
37170;BME280;23062;13.952;100.608;2022-09-09T13:34:32;749.72;;;-142.63;74.01
37170;BME280;23062;13.952;100.608;2022-09-09T13:39:23;749.74;;;-142.63;74.18
37170;BME280;23062;13.952;100.608;2022-09-09T13:44:34;749.78;;;-142.63;74.21
37170;BME280;23062;13.952;100.608;2022-09-09T13:49:21;749.85;;;-142.63;74.20
37170;BME280;23062;13.952;100.608;2022-09-09T13:54:18;749.96;;;-142.63;74.18
37170;BME280;23062;13.952;100.608;2022-09-09T13:59:04;750.11;;;-142.63;74.45
37170;BME280;23062;13.952;100.608;2022-09-09T14:03:53;750.24;;;-142.63;74.51
37170;BME280;23062;13.952;100.608;2022-09-09T14:08:43;750.31;;;-142.63;74.61
37170;BME280;23062;13.952;100.608;2022-09-09T14:13:34;750.33;;;-142.63;74.70
37170;BME280;23062;13.952;100.608;2022-09-09T14:18:24;750.42;;;-142.63;74.77
37170;BME280;23062;13.952;100.608;2022-09-09T14:23:14;750.49;;;-142.63;74.91
37170;BME280;23062;13.952;100.608;2022-09-09T14:28:03;750.53;;;-142.63;75.07
37170;BME280;23062;13.952;100.608;2022-09-09T14:32:53;750.59;;;-142.63;75.12
37170;BME280;23062;13.952;100.608;2022-09-09T14:37:42;750.65;;;-142.63;75.25
37170;BME280;23062;13.952;100.608;2022-09-09T14:42:32;750.66;;;-142.63;75.25
37170;BME280;23062;13.952;100.608;2022-09-09T14:47:23;750.71;;;-142.63;75.44
37170;BME280;23062;13.952;100.608;2022-09-09T14:52:13;750.74;;;-142.63;75.47
37170;BME280;23062;13.952;100.608;2022-09-09T14:57:04;750.82;;;-142.63;75.49
37170;BME280;23062;13.952;100.608;2022-09-09T15:01:53;750.85;;;-142.63;75.51
37170;BME280;23062;13.952;100.608;2022-09-09T15:06:43;750.92;;;-142.63;75.63
37170;BME280;23062;13.952;100.608;2022-09-09T15:11:35;750.91;;;-142.63;75.64
37170;BME280;23062;13.952;100.608;2022-09-09T15:16:28;750.93;;;-142.63;75.67
37170;BME280;23062;13.952;100.608;2022-09-09T15:21:19;750.91;;;-142.63;75.75
37170;BME280;23062;13.952;100.608;2022-09-09T15:26:10;750.96;;;-142.63;75.80
37170;BME280;23062;13.952;100.608;2022-09-09T15:31:02;750.94;;;-142.63;75.85
37170;BME280;23062;13.952;100.608;2022-09-09T15:35:54;751.05;;;-142.63;75.92
37170;BME280;23062;13.952;100.608;2022-09-09T15:40:44;751.00;;;-142.63;76.01
37170;BME280;23062;13.952;100.608;2022-09-09T15:45:34;751.02;;;-142.63;76.01
37170;BME280;23062;13.952;100.608;2022-09-09T15:50:24;751.05;;;-142.63;76.07
37170;BME280;23062;13.952;100.608;2022-09-09T15:55:13;751.02;;;-142.63;75.99
37170;BME280;23062;13.952;100.608;2022-09-09T16:00:05;750.95;;;-142.63;76.07
37170;BME280;23062;13.952;100.608;2022-09-09T16:04:56;751.03;;;-142.63;76.10
37170;BME280;23062;13.952;100.608;2022-09-09T16:09:48;750.95;;;-142.63;76.17
37170;BME280;23062;13.952;100.608;2022-09-09T16:14:39;750.96;;;-142.63;76.19
37170;BME280;23062;13.952;100.608;2022-09-09T16:19:30;750.98;;;-142.63;76.30
37170;BME280;23062;13.952;100.608;2022-09-09T16:24:20;750.88;;;-142.63;76.34
37170;BME280;23062;13.952;100.608;2022-09-09T16:29:10;750.80;;;-142.63;76.17
37170;BME280;23062;13.952;100.608;2022-09-09T16:33:59;750.78;;;-142.63;76.04
37170;BME280;23062;13.952;100.608;2022-09-09T16:38:52;750.77;;;-142.63;75.81
37170;BME280;23062;13.952;100.608;2022-09-09T16:43:40;750.78;;;-142.63;75.76
37170;BME280;23062;13.952;100.608;2022-09-09T16:48:33;750.79;;;-142.63;75.93
37170;BME280;23062;13.952;100.608;2022-09-09T16:53:23;750.80;;;-142.63;75.84
37170;BME280;23062;13.952;100.608;2022-09-09T16:58:12;750.75;;;-142.63;75.33
37170;BME280;23062;13.952;100.608;2022-09-09T17:03:02;750.70;;;-142.63;75.42
37170;BME280;23062;13.952;100.608;2022-09-09T17:07:53;750.67;;;-142.63;75.54
37170;BME280;23062;13.952;100.608;2022-09-09T17:12:43;750.64;;;-142.63;75.43
37170;BME280;23062;13.952;100.608;2022-09-09T17:17:33;750.57;;;-142.63;75.38
37170;BME280;23062;13.952;100.608;2022-09-09T17:22:23;750.62;;;-142.63;75.40
37170;BME280;23062;13.952;100.608;2022-09-09T17:27:13;750.73;;;-142.63;75.32
37170;BME280;23062;13.952;100.608;2022-09-09T17:32:04;750.80;;;-142.63;74.98
37170;BME280;23062;13.952;100.608;2022-09-09T17:36:53;750.82;;;-142.63;75.03
37170;BME280;23062;13.952;100.608;2022-09-09T17:41:42;750.95;;;-142.63;74.67
37170;BME280;23062;13.952;100.608;2022-09-09T17:46:34;750.99;;;-142.63;74.00
37170;BME280;23062;13.952;100.608;2022-09-09T17:51:25;751.02;;;-142.63;73.98
37170;BME280;23062;13.952;100.608;2022-09-09T17:56:18;751.08;;;-142.63;73.94
37170;BME280;23062;13.952;100.608;2022-09-09T18:01:11;751.05;;;-142.63;74.50
37170;BME280;23062;13.952;100.608;2022-09-09T18:06:01;750.91;;;-142.63;74.53
37170;BME280;23062;13.952;100.608;2022-09-09T18:10:53;750.91;;;-142.63;74.18
37170;BME280;23062;13.952;100.608;2022-09-09T18:15:44;750.97;;;-142.63;74.11
37170;BME280;23062;13.952;100.608;2022-09-09T18:20:33;751.04;;;-142.63;74.34
37170;BME280;23062;13.952;100.608;2022-09-09T18:25:22;751.20;;;-142.63;74.54
37170;BME280;23062;13.952;100.608;2022-09-09T18:30:12;750.97;;;-142.63;75.17
37170;BME280;23062;13.952;100.608;2022-09-09T18:35:01;750.78;;;-142.63;75.67
37170;BME280;23062;13.952;100.608;2022-09-09T18:39:51;750.78;;;-142.63;76.24
37170;BME280;23062;13.952;100.608;2022-09-09T18:44:41;750.93;;;-142.63;76.70
37170;BME280;23062;13.952;100.608;2022-09-09T18:49:30;750.87;;;-142.63;76.90
37170;BME280;23062;13.952;100.608;2022-09-09T18:54:22;750.72;;;-142.63;77.00
37170;BME280;23062;13.952;100.608;2022-09-09T18:59:13;750.78;;;-142.63;77.07
37170;BME280;23062;13.952;100.608;2022-09-09T19:04:04;750.72;;;-142.63;77.33
37170;BME280;23062;13.952;100.608;2022-09-09T19:08:54;750.74;;;-142.63;77.62
37170;BME280;23062;13.952;100.608;2022-09-09T19:13:50;750.63;;;-142.63;77.64
37170;BME280;23062;13.952;100.608;2022-09-09T19:18:39;750.53;;;-142.63;77.69
37170;BME280;23062;13.952;100.608;2022-09-09T19:23:31;750.53;;;-142.63;77.44
37170;BME280;23062;13.952;100.608;2022-09-09T19:28:21;750.65;;;-142.63;77.54
37170;BME280;23062;13.952;100.608;2022-09-09T19:33:11;750.73;;;-142.63;77.78
37170;BME280;23062;13.952;100.608;2022-09-09T19:38:01;750.67;;;-142.63;77.99
37170;BME280;23062;13.952;100.608;2022-09-09T19:42:50;750.41;;;-142.63;78.20
37170;BME280;23062;13.952;100.608;2022-09-09T19:47:41;750.41;;;-142.63;78.53
37170;BME280;23062;13.952;100.608;2022-09-09T19:52:30;750.42;;;-142.63;78.83
37170;BME280;23062;13.952;100.608;2022-09-09T19:57:21;750.46;;;-142.63;79.03
37170;BME280;23062;13.952;100.608;2022-09-09T20:02:12;750.38;;;-142.63;79.23
37170;BME280;23062;13.952;100.608;2022-09-09T20:07:02;750.37;;;-142.63;79.21
37170;BME280;23062;13.952;100.608;2022-09-09T20:11:52;750.38;;;-142.63;79.34
37170;BME280;23062;13.952;100.608;2022-09-09T20:16:42;750.49;;;-142.63;79.38
37170;BME280;23062;13.952;100.608;2022-09-09T20:21:34;750.60;;;-142.63;79.40
37170;BME280;23062;13.952;100.608;2022-09-09T20:26:25;750.71;;;-142.63;79.47
37170;BME280;23062;13.952;100.608;2022-09-09T20:31:18;750.69;;;-142.63;79.74
37170;BME280;23062;13.952;100.608;2022-09-09T20:36:19;750.55;;;-142.63;80.14
37170;BME280;23062;13.952;100.608;2022-09-09T20:41:05;750.42;;;-142.63;80.13
37170;BME280;23062;13.952;100.608;2022-09-09T20:45:55;750.41;;;-142.63;80.38
37170;BME280;23062;13.952;100.608;2022-09-09T20:50:47;750.44;;;-142.63;80.49
37170;BME280;23062;13.952;100.608;2022-09-09T20:55:37;750.39;;;-142.63;80.54
37170;BME280;23062;13.952;100.608;2022-09-09T21:00:28;750.46;;;-142.63;80.64
37170;BME280;23062;13.952;100.608;2022-09-09T21:05:17;750.54;;;-142.63;80.78
37170;BME280;23062;13.952;100.608;2022-09-09T21:10:07;750.58;;;-142.63;80.89
37170;BME280;23062;13.952;100.608;2022-09-09T21:14:57;750.63;;;-142.63;80.59
37170;BME280;23062;13.952;100.608;2022-09-09T21:19:47;750.64;;;-142.63;80.51
37170;BME280;23062;13.952;100.608;2022-09-09T21:24:36;750.59;;;-142.63;80.65
37170;BME280;23062;13.952;100.608;2022-09-09T21:29:27;750.55;;;-142.63;81.20
37170;BME280;23062;13.952;100.608;2022-09-09T21:34:16;750.50;;;-142.63;81.33
37170;BME280;23062;13.952;100.608;2022-09-09T21:39:05;750.48;;;-142.63;81.45
37170;BME280;23062;13.952;100.608;2022-09-09T21:43:54;750.51;;;-142.63;81.40
37170;BME280;23062;13.952;100.608;2022-09-09T21:48:44;750.52;;;-142.63;81.53
37170;BME280;23062;13.952;100.608;2022-09-09T21:53:33;750.53;;;-142.63;81.49
37170;BME280;23062;13.952;100.608;2022-09-09T21:58:23;750.52;;;-142.63;81.74
37170;BME280;23062;13.952;100.608;2022-09-09T22:03:13;750.54;;;-142.63;81.74
37170;BME280;23062;13.952;100.608;2022-09-09T22:08:03;750.56;;;-142.63;82.41
37170;BME280;23062;13.952;100.608;2022-09-09T22:12:53;750.72;;;-142.63;85.31
37170;BME280;23062;13.952;100.608;2022-09-09T22:17:44;750.73;;;-142.63;86.12
37170;BME280;23062;13.952;100.608;2022-09-09T22:22:33;750.74;;;-142.63;86.29
37170;BME280;23062;13.952;100.608;2022-09-09T22:27:23;750.76;;;-142.63;85.77
37170;BME280;23062;13.952;100.608;2022-09-09T22:32:12;750.84;;;-142.63;85.76
37170;BME280;23062;13.952;100.608;2022-09-09T22:37:02;750.96;;;-142.63;86.33
37170;BME280;23062;13.952;100.608;2022-09-09T22:41:51;750.95;;;-142.63;86.03
37170;BME280;23062;13.952;100.608;2022-09-09T22:46:41;750.98;;;-142.63;86.26
37170;BME280;23062;13.952;100.608;2022-09-09T22:51:33;751.06;;;-142.63;86.19
37170;BME280;23062;13.952;100.608;2022-09-09T22:56:22;751.11;;;-142.63;86.63
37170;BME280;23062;13.952;100.608;2022-09-09T23:01:17;751.21;;;-142.63;87.40
37170;BME280;23062;13.952;100.608;2022-09-09T23:06:13;751.42;;;-142.63;90.64
37170;BME280;23062;13.952;100.608;2022-09-09T23:11:09;751.48;;;-142.63;90.41
37170;BME280;23062;13.952;100.608;2022-09-09T23:15:59;751.49;;;-142.63;90.12
37170;BME280;23062;13.952;100.608;2022-09-09T23:20:55;751.52;;;-142.63;90.23
37170;BME280;23062;13.952;100.608;2022-09-09T23:25:46;751.57;;;-142.63;90.28
37170;BME280;23062;13.952;100.608;2022-09-09T23:30:40;751.75;;;-142.63;90.60
37170;BME280;23062;13.952;100.608;2022-09-09T23:35:27;751.78;;;-142.63;90.15
